Time;durP1;ratioP1;P1;durP2;ratioP2;P2;SDS_P1;SDS_P2;PMS_P1;PMS_P2;Temp;Humidity;BMP_temperature;BMP_pressure;BME280_temperature;BME280_humidity;BME280_pressure;Samples;Min_cycle;Max_cycle;Signal;HPM_P1;HPM_P2
2022/02/16 00:00:16;;;;;;;;;;;21.50;42.40;;;;;;5155274;27;20327;-49
2022/02/16 00:02:43;;;;;;;;;;;21.50;42.40;;;;;;5155897;27;19923;-44
2022/02/16 00:05:11;;;;;;;;;;;21.50;42.40;;;;;;5151242;27;19924;-46
2022/02/16 00:07:41;;;;;;;;;;;21.50;42.40;;;;;;5135546;27;19924;-47
2022/02/16 00:10:09;;;;;;;;;;;21.50;42.40;;;;;;5117773;27;19969;-48
2022/02/16 00:12:36;;;;;;;;;;;21.50;42.40;;;;;;5153965;27;19923;-48
2022/02/16 00:15:04;;;;;;;;;;;21.50;42.40;;;;;;5154531;27;20378;-52
2022/02/16 00:17:31;;;;;;;;;;;21.50;42.40;;;;;;5155642;27;19923;-47
2022/02/16 00:19:59;;;;;;;;;;;21.50;42.40;;;;;;5155696;27;20332;-47
2022/02/16 00:22:27;;;;;;;;;;;21.50;42.40;;;;;;5155754;27;19975;-52
2022/02/16 00:24:53;;;;;;;;;;;21.50;42.40;;;;;;5155504;27;19927;-49
2022/02/16 00:27:21;;;;;;;;;;;21.50;42.40;;;;;;5155157;27;19923;-50
2022/02/16 00:29:48;;;;;;;;;;;21.50;42.40;;;;;;5154664;27;19923;-53
2022/02/16 00:32:15;;;;;;;;;;;21.50;42.40;;;;;;5155660;27;19987;-52
2022/02/16 00:34:42;;;;;;;;;;;21.50;42.40;;;;;;5155593;27;19923;-52
2022/02/16 00:37:09;;;;;;;;;;;21.50;42.40;;;;;;5155642;27;19976;-51
2022/02/16 00:39:36;;;;;;;;;;;21.50;42.40;;;;;;5155623;27;19930;-48
2022/02/16 00:42:03;;;;;;;;;;;21.50;42.40;;;;;;5153759;27;19971;-50
2022/02/16 00:44:30;;;;;;;;;;;21.50;42.40;;;;;;5154137;27;20405;-50
2022/02/16 00:46:57;;;;;;;;;;;21.50;42.40;;;;;;5155735;27;20070;-51
2022/02/16 00:49:24;;;;;;;;;;;21.50;42.50;;;;;;5155258;27;19923;-51
2022/02/16 00:51:51;;;;;;;;;;;21.50;42.40;;;;;;5155268;27;19923;-50
2022/02/16 00:54:18;;;;;;;;;;;21.50;42.50;;;;;;5155225;27;19923;-50
2022/02/16 00:56:45;;;;;;;;;;;21.50;42.50;;;;;;5154409;27;19976;-48
2022/02/16 00:59:13;;;;;;;;;;;21.50;42.50;;;;;;5154515;27;19923;-53
2022/02/16 01:01:40;;;;;;;;;;;21.50;42.50;;;;;;5137047;27;19946;-46
2022/02/16 01:04:07;;;;;;;;;;;21.50;43.00;;;;;;5155252;27;20360;-49
2022/02/16 01:06:34;;;;;;;;;;;21.50;42.50;;;;;;5138217;27;19972;-45
2022/02/16 01:09:01;;;;;;;;;;;21.50;42.50;;;;;;5134566;28;19949;-48
2022/02/16 01:11:30;;;;;;;;;;;21.50;42.40;;;;;;5138048;27;19923;-47
2022/02/16 01:13:57;;;;;;;;;;;21.40;42.40;;;;;;5155286;27;19992;-49
2022/02/16 01:16:24;;;;;;;;;;;21.50;42.50;;;;;;5136665;27;20332;-48
2022/02/16 01:18:51;;;;;;;;;;;21.50;42.50;;;;;;5134045;28;19923;-47
2022/02/16 01:21:18;;;;;;;;;;;21.50;42.50;;;;;;5134345;28;20336;-46
2022/02/16 01:23:45;;;;;;;;;;;21.50;42.50;;;;;;5116029;28;20447;-46
2022/02/16 01:26:12;;;;;;;;;;;21.50;42.40;;;;;;5134130;27;19999;-48
2022/02/16 01:28:39;;;;;;;;;;;21.50;42.50;;;;;;5134515;27;19924;-45
2022/02/16 01:31:06;;;;;;;;;;;21.50;42.50;;;;;;5147626;27;20393;-48
2022/02/16 01:33:34;;;;;;;;;;;21.40;42.40;;;;;;5155127;27;19987;-44
2022/02/16 01:36:01;;;;;;;;;;;21.50;42.50;;;;;;5154661;27;19930;-43
2022/02/16 01:38:28;;;;;;;;;;;21.50;42.50;;;;;;5154737;27;19923;-43
2022/02/16 01:40:55;;;;;;;;;;;21.50;42.50;;;;;;5155029;27;19923;-47
2022/02/16 01:43:23;;;;;;;;;;;21.50;42.50;;;;;;5137674;27;20348;-44
2022/02/16 01:45:49;;;;;;;;;;;21.40;42.40;;;;;;5143718;27;19991;-43
2022/02/16 01:48:16;;;;;;;;;;;21.40;42.40;;;;;;5154899;27;19930;-47
2022/02/16 01:50:43;;;;;;;;;;;21.50;42.50;;;;;;5154949;27;19923;-44
2022/02/16 01:53:11;;;;;;;;;;;21.50;42.50;;;;;;5155273;27;20310;-43
2022/02/16 01:55:38;;;;;;;;;;;21.40;42.40;;;;;;5158411;27;20390;-46
2022/02/16 01:58:08;;;;;;;;;;;21.50;42.50;;;;;;5157632;27;20386;-45
2022/02/16 02:00:34;;;;;;;;;;;21.40;42.40;;;;;;5157166;27;19923;-45
2022/02/16 02:03:01;;;;;;;;;;;21.40;42.40;;;;;;5158583;27;19930;-43
2022/02/16 02:05:29;;;;;;;;;;;21.40;42.40;;;;;;5150688;27;19923;-46
2022/02/16 02:07:56;;;;;;;;;;;21.40;42.40;;;;;;5137363;27;19937;-43
2022/02/16 02:10:23;;;;;;;;;;;21.40;42.40;;;;;;5137676;27;19958;-46
2022/02/16 02:12:53;;;;;;;;;;;21.40;42.40;;;;;;5137518;27;19976;-43
2022/02/16 02:15:21;;;;;;;;;;;21.40;42.40;;;;;;5140179;27;19995;-48
2022/02/16 02:17:48;;;;;;;;;;;21.40;42.40;;;;;;5158673;27;19966;-44
2022/02/16 02:20:25;;;;;;;;;;;21.40;42.40;;;;;;5158266;27;19923;-44
2022/02/16 02:22:53;;;;;;;;;;;21.40;42.40;;;;;;5157979;27;19976;-45
2022/02/16 02:25:20;;;;;;;;;;;21.40;42.40;;;;;;5157874;27;19927;-45
2022/02/16 02:27:48;;;;;;;;;;;21.40;42.50;;;;;;5156962;27;19948;-47
2022/02/16 02:30:15;;;;;;;;;;;21.40;42.50;;;;;;5156703;27;20431;-47
2022/02/16 02:32:43;;;;;;;;;;;21.40;42.50;;;;;;5158006;27;19931;-47
2022/02/16 02:35:11;;;;;;;;;;;21.40;42.50;;;;;;5157858;27;19930;-49
2022/02/16 02:37:39;;;;;;;;;;;21.40;42.50;;;;;;5157549;27;19923;-46
2022/02/16 02:40:07;;;;;;;;;;;21.40;42.50;;;;;;5157924;27;20341;-54
2022/02/16 02:42:40;;;;;;;;;;;21.40;42.50;;;;;;5157105;27;19927;-48
2022/02/16 02:45:08;;;;;;;;;;;21.40;42.50;;;;;;5158029;27;19952;-51
2022/02/16 02:47:35;;;;;;;;;;;21.40;42.50;;;;;;5156718;27;19927;-44
2022/02/16 02:50:03;;;;;;;;;;;21.40;42.50;;;;;;5157691;27;19967;-44
2022/02/16 02:52:32;;;;;;;;;;;21.40;42.50;;;;;;5157135;27;19923;-45
2022/02/16 02:54:59;;;;;;;;;;;21.40;42.50;;;;;;5157272;27;19923;-43
2022/02/16 02:57:26;;;;;;;;;;;21.40;42.50;;;;;;5156797;27;19924;-47
2022/02/16 02:59:53;;;;;;;;;;;21.40;42.50;;;;;;5157429;27;19968;-45
2022/02/16 03:02:20;;;;;;;;;;;21.40;42.50;;;;;;5156128;27;19923;-48
2022/02/16 03:04:47;;;;;;;;;;;21.40;42.50;;;;;;5154703;27;19927;-44
2022/02/16 03:07:14;;;;;;;;;;;21.40;42.60;;;;;;5136200;27;19984;-46
2022/02/16 03:09:42;;;;;;;;;;;21.40;42.60;;;;;;5136242;27;19923;-45
2022/02/16 03:12:09;;;;;;;;;;;21.40;42.60;;;;;;5136205;27;19927;-50
2022/02/16 03:14:36;;;;;;;;;;;21.30;42.50;;;;;;5154644;27;19992;-47
2022/02/16 03:17:03;;;;;;;;;;;21.30;42.50;;;;;;5137480;27;19966;-46
2022/02/16 03:19:30;;;;;;;;;;;21.40;42.60;;;;;;5156850;27;19975;-48
2022/02/16 03:21:57;;;;;;;;;;;21.30;42.50;;;;;;5156839;27;19931;-47
2022/02/16 03:24:24;;;;;;;;;;;21.30;42.50;;;;;;5156639;27;19923;-47
2022/02/16 03:26:52;;;;;;;;;;;21.30;42.50;;;;;;5156860;27;19927;-47
2022/02/16 03:29:19;;;;;;;;;;;21.30;42.60;;;;;;5156214;27;19923;-47
2022/02/16 03:31:47;;;;;;;;;;;21.30;42.60;;;;;;5155490;27;19952;-49
2022/02/16 03:34:14;;;;;;;;;;;21.30;42.60;;;;;;5156307;27;19971;-46
2022/02/16 03:36:41;;;;;;;;;;;21.30;42.60;;;;;;5156424;27;19952;-44
2022/02/16 03:39:09;;;;;;;;;;;21.30;42.60;;;;;;5156669;27;20332;-51
2022/02/16 03:41:36;;;;;;;;;;;21.30;42.60;;;;;;5156341;27;19923;-45
2022/02/16 03:44:03;;;;;;;;;;;21.30;42.60;;;;;;5155504;27;19923;-48
2022/02/16 03:46:30;;;;;;;;;;;21.30;42.60;;;;;;5155549;27;19923;-46
2022/02/16 03:48:57;;;;;;;;;;;21.30;42.60;;;;;;5157206;27;19927;-46
2022/02/16 03:51:24;;;;;;;;;;;21.30;42.60;;;;;;5156367;27;19946;-45
2022/02/16 03:53:52;;;;;;;;;;;21.30;42.60;;;;;;5156106;27;20344;-46
2022/02/16 03:56:19;;;;;;;;;;;21.30;42.60;;;;;;5156048;27;19923;-46
2022/02/16 03:58:46;;;;;;;;;;;21.30;42.60;;;;;;5148012;27;19923;-43
2022/02/16 04:01:13;;;;;;;;;;;21.30;42.60;;;;;;5135367;27;19975;-45
2022/02/16 04:03:42;;;;;;;;;;;21.30;42.60;;;;;;5156251;27;19923;-45
2022/02/16 04:06:09;;;;;;;;;;;21.30;42.60;;;;;;5142845;27;19924;-44
2022/02/16 04:08:36;;;;;;;;;;;21.30;42.60;;;;;;5135313;27;19972;-46
2022/02/16 04:11:04;;;;;;;;;;;21.30;42.60;;;;;;5135385;27;20352;-47
2022/02/16 04:13:31;;;;;;;;;;;21.30;42.60;;;;;;5116734;27;20300;-45
2022/02/16 04:15:58;;;;;;;;;;;21.30;42.60;;;;;;5116974;27;20302;-43
2022/02/16 04:18:25;;;;;;;;;;;21.30;42.60;;;;;;5151675;27;19924;-47
2022/02/16 04:20:52;;;;;;;;;;;21.30;42.60;;;;;;5155650;27;19923;-46
2022/02/16 04:23:21;;;;;;;;;;;21.30;42.60;;;;;;5155702;27;19927;-44
2022/02/16 04:25:48;;;;;;;;;;;21.20;42.60;;;;;;5155537;27;20382;-44
2022/02/16 04:28:15;;;;;;;;;;;21.20;42.60;;;;;;5155297;27;19927;-46
2022/02/16 04:30:42;;;;;;;;;;;21.30;42.70;;;;;;5155223;27;19923;-48
2022/02/16 04:33:09;;;;;;;;;;;21.20;42.60;;;;;;5154683;27;19976;-47
2022/02/16 04:35:36;;;;;;;;;;;21.20;42.60;;;;;;5155513;27;20370;-44
2022/02/16 04:38:06;;;;;;;;;;;21.20;42.60;;;;;;5155687;27;19930;-45
2022/02/16 04:40:33;;;;;;;;;;;21.20;42.60;;;;;;5155717;27;19923;-45
2022/02/16 04:43:03;;;;;;;;;;;21.20;42.60;;;;;;5155342;27;20374;-48
2022/02/16 04:45:31;;;;;;;;;;;21.20;42.60;;;;;;5154590;27;19924;-44
2022/02/16 04:47:58;;;;;;;;;;;21.20;42.60;;;;;;5154458;27;19987;-43
2022/02/16 04:50:26;;;;;;;;;;;21.20;42.60;;;;;;5155230;27;19972;-47
2022/02/16 04:52:54;;;;;;;;;;;21.20;42.60;;;;;;5155029;27;19971;-44
2022/02/16 04:55:26;;;;;;;;;;;21.20;42.60;;;;;;5155486;27;19972;-47
2022/02/16 04:57:53;;;;;;;;;;;21.20;42.60;;;;;;5155506;27;19923;-45
2022/02/16 05:00:21;;;;;;;;;;;21.20;42.60;;;;;;5154861;27;19930;-44
2022/02/16 05:02:48;;;;;;;;;;;21.20;42.60;;;;;;5154030;27;20450;-45
2022/02/16 05:05:15;;;;;;;;;;;21.20;42.60;;;;;;5149735;27;19968;-45
2022/02/16 05:07:42;;;;;;;;;;;21.20;42.60;;;;;;5134288;28;20391;-44
2022/02/16 05:10:09;;;;;;;;;;;21.20;42.60;;;;;;5134879;28;19927;-44
2022/02/16 05:12:37;;;;;;;;;;;21.20;42.60;;;;;;5134630;28;19928;-43
2022/02/16 05:15:04;;;;;;;;;;;21.20;42.60;;;;;;5145024;27;19930;-43
2022/02/16 05:17:31;;;;;;;;;;;21.20;43.20;;;;;;5153896;27;19968;-43
2022/02/16 05:19:58;;;;;;;;;;;21.20;42.60;;;;;;5154822;27;19927;-43
2022/02/16 05:22:26;;;;;;;;;;;21.20;42.60;;;;;;5154764;27;19927;-45
2022/02/16 05:24:58;;;;;;;;;;;21.20;42.60;;;;;;5155293;27;20298;-48
2022/02/16 05:27:25;;;;;;;;;;;21.20;42.60;;;;;;5155150;27;19927;-49
2022/02/16 05:29:52;;;;;;;;;;;21.20;42.60;;;;;;5157836;27;19923;-46
2022/02/16 05:32:19;;;;;;;;;;;21.20;42.70;;;;;;5157775;27;19931;-44
2022/02/16 05:34:46;;;;;;;;;;;21.20;42.60;;;;;;5159120;27;19968;-43
2022/02/16 05:37:13;;;;;;;;;;;21.20;42.60;;;;;;5158809;27;19930;-43
2022/02/16 05:39:40;;;;;;;;;;;21.20;42.70;;;;;;5158729;27;20386;-45
2022/02/16 05:42:08;;;;;;;;;;;21.10;42.60;;;;;;5158611;27;20370;-45
2022/02/16 05:44:35;;;;;;;;;;;21.20;42.70;;;;;;5158258;27;19923;-45
2022/02/16 05:47:02;;;;;;;;;;;21.20;42.70;;;;;;5158906;27;19923;-46
2022/02/16 05:49:30;;;;;;;;;;;21.10;42.60;;;;;;5157432;27;19923;-47
2022/02/16 05:51:57;;;;;;;;;;;21.10;42.60;;;;;;5158869;27;20279;-44
2022/02/16 05:54:24;;;;;;;;;;;21.10;42.60;;;;;;5158422;27;20383;-44
2022/02/16 05:56:51;;;;;;;;;;;21.10;42.60;;;;;;5158894;27;19923;-46
2022/02/16 05:59:18;;;;;;;;;;;21.10;42.60;;;;;;5158386;27;20382;-44
2022/02/16 06:01:45;;;;;;;;;;;21.10;42.60;;;;;;5138343;27;19923;-44
2022/02/16 06:04:15;;;;;;;;;;;21.10;42.60;;;;;;5152394;27;20343;-45
2022/02/16 06:06:43;;;;;;;;;;;21.10;42.60;;;;;;5140475;27;19992;-47
2022/02/16 06:09:10;;;;;;;;;;;21.10;42.60;;;;;;5137353;27;19927;-45
2022/02/16 06:11:37;;;;;;;;;;;21.10;42.60;;;;;;5137399;27;20383;-45
2022/02/16 06:14:07;;;;;;;;;;;21.10;42.60;;;;;;5137363;27;20375;-45
2022/02/16 06:16:34;;;;;;;;;;;21.10;42.60;;;;;;5154312;27;19975;-46
2022/02/16 06:19:01;;;;;;;;;;;21.10;42.60;;;;;;5156841;27;19923;-44
2022/02/16 06:21:28;;;;;;;;;;;21.10;42.60;;;;;;5157685;27;20409;-48
2022/02/16 06:23:55;;;;;;;;;;;21.10;42.60;;;;;;5157937;27;20382;-43
2022/02/16 06:26:22;;;;;;;;;;;21.10;42.60;;;;;;5158187;27;20339;-49
2022/02/16 06:28:49;;;;;;;;;;;21.10;42.60;;;;;;5158065;27;19946;-47
2022/02/16 06:31:16;;;;;;;;;;;21.10;42.60;;;;;;5156942;27;20340;-46
2022/02/16 06:33:43;;;;;;;;;;;21.10;42.50;;;;;;5156459;27;19968;-49
2022/02/16 06:36:10;;;;;;;;;;;21.10;42.50;;;;;;5157593;27;19926;-45
2022/02/16 06:38:38;;;;;;;;;;;21.10;42.50;;;;;;5157911;27;19976;-44
2022/02/16 06:41:05;;;;;;;;;;;21.10;42.50;;;;;;5156674;27;20372;-48
2022/02/16 06:43:32;;;;;;;;;;;21.10;42.50;;;;;;5157649;27;19930;-46
2022/02/16 06:45:59;;;;;;;;;;;21.10;42.50;;;;;;5147254;27;19967;-46
2022/02/16 06:48:26;;;;;;;;;;;21.10;42.50;;;;;;5123236;27;19964;-46
2022/02/16 06:50:53;;;;;;;;;;;21.20;42.60;;;;;;5157270;27;19923;-46
2022/02/16 06:53:20;;;;;;;;;;;21.10;42.50;;;;;;5157699;27;19926;-46
2022/02/16 06:55:48;;;;;;;;;;;21.10;42.50;;;;;;5157455;27;19954;-47
2022/02/16 06:58:16;;;;;;;;;;;21.10;42.50;;;;;;5157154;27;19923;-45
2022/02/16 07:00:43;;;;;;;;;;;21.10;42.50;;;;;;5156394;27;19923;-47
2022/02/16 07:03:10;;;;;;;;;;;21.20;42.60;;;;;;5156333;27;19935;-42
2022/02/16 07:05:37;;;;;;;;;;;21.20;42.60;;;;;;5148154;27;20383;-45
2022/02/16 07:08:04;;;;;;;;;;;21.10;42.50;;;;;;5136226;27;20367;-44
2022/02/16 07:10:31;;;;;;;;;;;21.10;42.50;;;;;;5118525;27;19924;-45
2022/02/16 07:12:58;;;;;;;;;;;21.10;42.50;;;;;;5136508;27;20010;-47
2022/02/16 07:15:26;;;;;;;;;;;21.10;42.50;;;;;;5137025;27;19923;-47
2022/02/16 07:17:54;;;;;;;;;;;21.10;42.50;;;;;;5156645;27;19952;-45
2022/02/16 07:20:27;;;;;;;;;;;21.10;42.50;;;;;;5155607;27;19923;-48
2022/02/16 07:22:55;;;;;;;;;;;21.20;42.60;;;;;;5156925;27;20271;-44
2022/02/16 07:25:24;;;;;;;;;;;21.20;42.50;;;;;;5157017;27;19923;-49
2022/02/16 07:28:11;;;;;;;;;;;21.20;42.50;;;;;;5156659;27;20017;-50
2022/02/16 07:30:38;;;;;;;;;;;21.20;42.50;;;;;;5155850;27;19927;-45
2022/02/16 07:33:05;;;;;;;;;;;21.20;42.50;;;;;;5156801;27;19923;-50
2022/02/16 07:35:32;;;;;;;;;;;21.20;42.50;;;;;;5155382;27;20427;-46
2022/02/16 07:37:59;;;;;;;;;;;21.20;42.50;;;;;;5156733;27;19988;-50
2022/02/16 07:40:27;;;;;;;;;;;21.20;42.50;;;;;;5156703;27;20289;-46
2022/02/16 07:42:54;;;;;;;;;;;21.20;42.50;;;;;;5138024;27;19972;-46
2022/02/16 07:45:21;;;;;;;;;;;21.20;42.50;;;;;;5156555;27;19923;-51
2022/02/16 07:47:48;;;;;;;;;;;21.20;42.50;;;;;;5155429;27;20006;-47
2022/02/16 07:50:15;;;;;;;;;;;21.20;42.40;;;;;;5155394;27;19976;-50
2022/02/16 07:52:42;;;;;;;;;;;21.20;42.40;;;;;;5137999;27;19923;-47
2022/02/16 07:55:09;;;;;;;;;;;21.20;42.40;;;;;;5139072;27;20437;-44
2022/02/16 07:57:37;;;;;;;;;;;21.20;42.40;;;;;;5156319;27;19923;-46
2022/02/16 08:00:05;;;;;;;;;;;21.20;42.40;;;;;;5156360;27;19923;-46
2022/02/16 08:02:33;;;;;;;;;;;21.20;42.40;;;;;;5137401;27;19923;-51
2022/02/16 08:05:05;;;;;;;;;;;21.20;42.40;;;;;;5151202;27;19929;-50
2022/02/16 08:07:36;;;;;;;;;;;21.20;42.40;;;;;;5135176;27;20456;-45
2022/02/16 08:10:04;;;;;;;;;;;21.20;42.40;;;;;;5135323;27;19967;-51
2022/02/16 08:12:31;;;;;;;;;;;21.20;42.40;;;;;;5135011;27;19970;-47
2022/02/16 08:14:58;;;;;;;;;;;21.20;42.40;;;;;;5134939;27;19977;-47
2022/02/16 08:17:25;;;;;;;;;;;21.20;43.00;;;;;;5147343;27;19927;-49
2022/02/16 08:19:52;;;;;;;;;;;21.20;42.40;;;;;;5154491;27;20393;-45
2022/02/16 08:22:19;;;;;;;;;;;21.20;42.30;;;;;;5155718;27;19927;-48
2022/02/16 08:24:46;;;;;;;;;;;21.20;42.30;;;;;;5155571;27;20429;-45
2022/02/16 08:27:13;;;;;;;;;;;21.20;42.30;;;;;;5155517;27;19927;-48
2022/02/16 08:29:40;;;;;;;;;;;21.20;42.30;;;;;;5156279;27;19952;-48
2022/02/16 08:32:07;;;;;;;;;;;21.20;42.30;;;;;;5154990;27;20340;-46
2022/02/16 08:34:34;;;;;;;;;;;21.20;42.20;;;;;;5154597;27;20009;-45
2022/02/16 08:37:01;;;;;;;;;;;21.20;42.20;;;;;;5155406;27;20283;-46
2022/02/16 08:39:28;;;;;;;;;;;21.20;42.20;;;;;;5137384;27;19923;-44
2022/02/16 08:41:55;;;;;;;;;;;21.20;42.20;;;;;;5155674;27;19955;-45
2022/02/16 08:44:22;;;;;;;;;;;21.20;42.20;;;;;;5155256;27;20431;-46
2022/02/16 08:46:50;;;;;;;;;;;21.30;42.20;;;;;;5154534;27;20313;-50
2022/02/16 08:49:17;;;;;;;;;;;21.30;42.20;;;;;;5154128;27;19975;-44
2022/02/16 08:51:45;;;;;;;;;;;21.30;42.20;;;;;;5155352;27;20302;-49
2022/02/16 08:54:12;;;;;;;;;;;21.30;42.10;;;;;;5155439;27;19930;-45
2022/02/16 08:56:41;;;;;;;;;;;21.30;42.10;;;;;;5155070;27;19923;-49
2022/02/16 08:59:09;;;;;;;;;;;21.30;42.10;;;;;;5155328;27;19923;-46
2022/02/16 09:01:35;;;;;;;;;;;21.30;42.10;;;;;;5154532;27;19923;-50
2022/02/16 09:04:04;;;;;;;;;;;21.30;42.00;;;;;;5157550;27;19956;-51
2022/02/16 09:06:32;;;;;;;;;;;21.30;42.00;;;;;;5142034;27;20286;-45
2022/02/16 09:08:59;;;;;;;;;;;21.30;41.90;;;;;;5138712;27;19923;-48
2022/02/16 09:11:26;;;;;;;;;;;21.30;41.90;;;;;;5138695;27;19923;-46
2022/02/16 09:13:54;;;;;;;;;;;21.30;41.90;;;;;;5138804;27;19924;-46
2022/02/16 09:16:21;;;;;;;;;;;21.40;41.90;;;;;;5120616;27;20374;-46
2022/02/16 09:18:48;;;;;;;;;;;21.40;41.90;;;;;;5156365;27;19923;-45
2022/02/16 09:21:18;;;;;;;;;;;21.40;41.80;;;;;;5158044;27;19971;-46
2022/02/16 09:23:45;;;;;;;;;;;21.40;41.80;;;;;;5159952;27;19923;-45
2022/02/16 09:26:12;;;;;;;;;;;21.40;41.70;;;;;;5159008;27;19992;-45
2022/02/16 09:28:39;;;;;;;;;;;21.40;41.70;;;;;;5159209;27;19930;-45
2022/02/16 09:31:06;;;;;;;;;;;21.40;41.70;;;;;;5159234;27;19983;-45
2022/02/16 09:33:33;;;;;;;;;;;21.40;41.60;;;;;;5143017;27;20332;-47
2022/02/16 09:36:00;;;;;;;;;;;21.50;41.60;;;;;;5131774;27;20331;-46
2022/02/16 09:38:27;;;;;;;;;;;21.50;41.60;;;;;;5158707;27;19968;-44
2022/02/16 09:40:54;;;;;;;;;;;21.50;41.60;;;;;;5140593;27;19938;-46
2022/02/16 09:43:23;;;;;;;;;;;21.50;41.50;;;;;;5158625;27;20378;-48
2022/02/16 09:45:55;;;;;;;;;;;21.50;41.50;;;;;;5158744;27;19927;-45
2022/02/16 09:48:23;;;;;;;;;;;21.50;41.50;;;;;;5145837;27;20302;-46
2022/02/16 09:50:52;;;;;;;;;;;21.50;41.50;;;;;;5146729;27;19934;-47
2022/02/16 09:53:28;;;;;;;;;;;21.50;41.40;;;;;;5158799;27;20331;-45
2022/02/16 09:55:58;;;;;;;;;;;21.50;41.30;;;;;;5158670;27;19945;-48
2022/02/16 09:58:25;;;;;;;;;;;21.60;41.40;;;;;;5158582;27;19927;-46
2022/02/16 10:01:06;;;;;;;;;;;21.60;41.30;;;;;;5158642;27;20341;-48
2022/02/16 10:03:33;;;;;;;;;;;21.60;41.30;;;;;;5145908;27;20416;-44
2022/02/16 10:06:04;;;;;;;;;;;21.60;41.30;;;;;;5149109;27;19923;-45
2022/02/16 10:08:44;;;;;;;;;;;21.60;41.30;;;;;;5158132;27;20063;-46
2022/02/16 10:11:12;;;;;;;;;;;21.60;41.30;;;;;;5158335;27;20339;-44
2022/02/16 10:13:40;;;;;;;;;;;21.60;41.20;;;;;;5158092;27;19930;-46
2022/02/16 10:16:07;;;;;;;;;;;21.60;41.20;;;;;;5158206;27;19923;-47
2022/02/16 10:18:54;;;;;;;;;;;21.70;41.30;;;;;;5157269;27;19971;-44
2022/02/16 10:21:21;;;;;;;;;;;21.70;41.20;;;;;;5157129;27;19923;-45
2022/02/16 10:23:50;;;;;;;;;;;21.70;41.20;;;;;;5158117;27;19968;-45
2022/02/16 10:26:19;;;;;;;;;;;21.70;41.20;;;;;;5157435;27;20311;-46
2022/02/16 10:28:50;;;;;;;;;;;21.70;41.10;;;;;;5157982;27;19934;-44
2022/02/16 10:31:18;;;;;;;;;;;21.70;41.10;;;;;;5158155;27;19972;-46
2022/02/16 10:33:47;;;;;;;;;;;21.80;41.20;;;;;;5138470;27;20386;-45
2022/02/16 10:36:23;;;;;;;;;;;21.80;41.10;;;;;;5156615;27;19923;-43
2022/02/16 10:39:00;;;;;;;;;;;21.80;41.10;;;;;;5157917;27;19950;-46
2022/02/16 10:41:41;;;;;;;;;;;21.80;41.10;;;;;;5157957;27;19972;-45
2022/02/16 10:44:19;;;;;;;;;;;21.80;41.10;;;;;;5157833;27;19927;-45
2022/02/16 10:47:03;;;;;;;;;;;21.80;41.10;;;;;;5158377;27;19927;-47
2022/02/16 10:49:31;;;;;;;;;;;21.90;41.10;;;;;;5156944;27;19975;-44
2022/02/16 10:52:10;;;;;;;;;;;21.90;41.00;;;;;;5139860;27;19923;-46
2022/02/16 10:54:38;;;;;;;;;;;21.90;41.00;;;;;;5157305;27;20366;-44
2022/02/16 10:57:05;;;;;;;;;;;21.90;41.00;;;;;;5157294;27;19927;-48
2022/02/16 10:59:32;;;;;;;;;;;21.90;41.00;;;;;;5157999;27;19923;-47
2022/02/16 11:02:06;;;;;;;;;;;21.90;41.00;;;;;;5139127;27;19971;-44
2022/02/16 11:04:34;;;;;;;;;;;22.00;41.10;;;;;;5156286;27;19923;-44
2022/02/16 11:07:02;;;;;;;;;;;22.00;41.00;;;;;;5117460;27;19927;-45
2022/02/16 11:09:32;;;;;;;;;;;22.00;41.00;;;;;;5136512;27;19949;-45
2022/02/16 11:12:01;;;;;;;;;;;22.00;40.90;;;;;;5118397;27;19924;-46
2022/02/16 11:14:31;;;;;;;;;;;22.00;40.90;;;;;;5136533;27;20350;-44
2022/02/16 11:17:00;;;;;;;;;;;22.00;40.90;;;;;;5136550;27;19923;-45
2022/02/16 11:19:29;;;;;;;;;;;22.10;41.00;;;;;;5147456;27;19968;-44
2022/02/16 11:22:00;;;;;;;;;;;22.10;41.00;;;;;;5155514;27;19930;-44
2022/02/16 11:24:28;;;;;;;;;;;22.10;41.00;;;;;;5156724;27;19969;-45
2022/02/16 11:26:56;;;;;;;;;;;22.00;40.90;;;;;;5156420;27;19923;-46
2022/02/16 11:29:26;;;;;;;;;;;22.10;40.90;;;;;;5156959;27;19923;-43
2022/02/16 11:32:13;;;;;;;;;;;22.10;40.90;;;;;;5157439;27;19946;-46
2022/02/16 11:34:41;;;;;;;;;;;22.10;40.90;;;;;;5155534;27;20017;-46
2022/02/16 11:37:08;;;;;;;;;;;22.10;40.90;;;;;;5136982;27;19935;-45
2022/02/16 11:39:42;;;;;;;;;;;22.10;40.90;;;;;;5156778;27;19923;-46
2022/02/16 11:42:10;;;;;;;;;;;22.20;41.00;;;;;;5156696;27;19927;-49
2022/02/16 11:44:50;;;;;;;;;;;22.20;40.90;;;;;;5156361;27;19958;-46
2022/02/16 11:47:35;;;;;;;;;;;22.20;41.00;;;;;;5156285;27;20009;-46
2022/02/16 11:50:08;;;;;;;;;;;22.20;41.00;;;;;;5155683;27;19923;-50
2022/02/16 11:52:51;;;;;;;;;;;22.20;41.00;;;;;;5155349;27;19923;-44
2022/02/16 11:55:21;;;;;;;;;;;22.20;40.90;;;;;;5156460;27;19927;-45
2022/02/16 11:57:55;;;;;;;;;;;22.20;41.60;;;;;;5138668;27;19923;-48
2022/02/16 12:00:26;;;;;;;;;;;22.20;40.90;;;;;;5156347;27;19923;-46
2022/02/16 12:02:56;;;;;;;;;;;22.20;40.90;;;;;;5156046;27;19962;-47
2022/02/16 12:05:42;;;;;;;;;;;22.30;41.00;;;;;;5148770;27;19924;-44
2022/02/16 12:08:14;;;;;;;;;;;22.30;41.00;;;;;;5134993;27;20378;-47
2022/02/16 12:10:47;;;;;;;;;;;22.30;40.90;;;;;;5135585;27;20443;-46
2022/02/16 12:13:14;;;;;;;;;;;22.30;40.90;;;;;;5135089;27;19927;-44
2022/02/16 12:15:46;;;;;;;;;;;22.40;40.90;;;;;;5135435;27;19923;-44
2022/02/16 12:18:13;;;;;;;;;;;22.40;40.90;;;;;;5135048;27;19965;-45
2022/02/16 12:20:49;;;;;;;;;;;22.40;40.90;;;;;;5151839;27;20019;-45
2022/02/16 12:23:16;;;;;;;;;;;22.40;40.90;;;;;;5154729;27;19927;-45
2022/02/16 12:25:43;;;;;;;;;;;22.40;40.80;;;;;;5155504;27;20018;-49
2022/02/16 12:28:10;;;;;;;;;;;22.40;40.80;;;;;;5155882;27;20337;-47
2022/02/16 12:30:41;;;;;;;;;;;22.40;40.90;;;;;;5156521;27;19923;-45
2022/02/16 12:33:24;;;;;;;;;;;22.40;40.80;;;;;;5155703;27;19976;-45
2022/02/16 12:35:51;;;;;;;;;;;22.40;40.80;;;;;;5154903;27;19952;-45
2022/02/16 12:38:23;;;;;;;;;;;22.50;40.90;;;;;;5119563;27;19930;-47
2022/02/16 12:40:50;;;;;;;;;;;22.50;40.90;;;;;;5134713;27;19968;-44
2022/02/16 12:43:17;;;;;;;;;;;22.50;40.90;;;;;;5134633;27;19923;-44
2022/02/16 12:45:46;;;;;;;;;;;22.50;40.90;;;;;;5134623;27;20425;-49
2022/02/16 12:48:15;;;;;;;;;;;22.50;40.90;;;;;;5134577;27;19923;-46
2022/02/16 12:50:44;;;;;;;;;;;22.50;40.90;;;;;;5147885;27;20490;-45
2022/02/16 12:53:13;;;;;;;;;;;22.50;40.80;;;;;;5154020;27;19965;-48
2022/02/16 12:55:44;;;;;;;;;;;22.50;40.90;;;;;;5155189;27;19923;-46
2022/02/16 12:58:14;;;;;;;;;;;22.50;40.80;;;;;;5155117;27;19927;-50
2022/02/16 13:00:47;;;;;;;;;;;22.50;40.90;;;;;;5155148;27;19934;-45
2022/02/16 13:03:18;;;;;;;;;;;22.50;40.90;;;;;;5155363;27;19923;-49
2022/02/16 13:05:48;;;;;;;;;;;22.50;40.90;;;;;;5144239;27;19977;-46
2022/02/16 13:08:15;;;;;;;;;;;22.50;40.90;;;;;;5146318;27;19963;-45
2022/02/16 13:10:42;;;;;;;;;;;22.60;40.90;;;;;;5155044;27;19923;-47
2022/02/16 13:13:17;;;;;;;;;;;22.50;40.80;;;;;;5155029;27;19933;-46
2022/02/16 13:15:45;;;;;;;;;;;22.60;40.90;;;;;;5155238;27;19968;-46
2022/02/16 13:18:15;;;;;;;;;;;22.60;40.80;;;;;;5154824;27;19923;-50
2022/02/16 13:20:43;;;;;;;;;;;22.60;40.80;;;;;;5150701;27;20429;-44
2022/02/16 13:23:18;;;;;;;;;;;22.70;40.90;;;;;;5141964;27;19927;-45
2022/02/16 13:25:46;;;;;;;;;;;22.70;40.80;;;;;;5143798;27;19931;-47
2022/02/16 13:28:18;;;;;;;;;;;22.70;40.80;;;;;;5124635;27;20052;-45
2022/02/16 13:30:47;;;;;;;;;;;22.70;40.80;;;;;;5144115;27;19923;-49
2022/02/16 13:33:15;;;;;;;;;;;22.70;40.80;;;;;;5144784;27;19930;-49
2022/02/16 13:35:44;;;;;;;;;;;22.70;40.70;;;;;;5140865;27;19924;-44
2022/02/16 13:38:19;;;;;;;;;;;22.70;40.80;;;;;;5142405;27;20005;-45
2022/02/16 13:40:48;;;;;;;;;;;22.70;40.70;;;;;;5135916;27;20009;-48
2022/02/16 13:43:46;;;;;;;;;;;22.70;40.70;;;;;;5154143;27;19962;-47
2022/02/16 13:46:14;;;;;;;;;;;22.80;40.80;;;;;;5154465;27;20014;-45
2022/02/16 13:48:41;;;;;;;;;;;22.80;40.80;;;;;;5135821;27;19927;-45
2022/02/16 13:51:15;;;;;;;;;;;22.70;40.80;;;;;;5157242;27;20035;-45
2022/02/16 13:53:49;;;;;;;;;;;22.80;40.80;;;;;;5157671;27;19970;-50
2022/02/16 13:56:18;;;;;;;;;;;22.80;40.80;;;;;;5158751;27;19930;-46
2022/02/16 13:58:45;;;;;;;;;;;22.80;40.80;;;;;;5158390;27;19927;-48
2022/02/16 14:01:12;;;;;;;;;;;22.80;40.80;;;;;;5158515;27;19972;-48
2022/02/16 14:03:41;;;;;;;;;;;22.70;40.80;;;;;;5157649;27;20449;-43
2022/02/16 14:06:11;;;;;;;;;;;22.80;40.90;;;;;;5144625;27;20000;-48
2022/02/16 14:08:39;;;;;;;;;;;22.70;40.80;;;;;;5118310;27;20382;-47
2022/02/16 14:11:07;;;;;;;;;;;22.80;40.90;;;;;;5136838;27;20390;-48
2022/02/16 14:13:35;;;;;;;;;;;22.80;40.90;;;;;;5136953;27;19976;-51
2022/02/16 14:16:04;;;;;;;;;;;22.80;40.90;;;;;;5137179;27;19946;-48
2022/02/16 14:18:31;;;;;;;;;;;22.80;40.90;;;;;;5137172;27;19976;-46
2022/02/16 14:21:03;;;;;;;;;;;22.80;40.90;;;;;;5143905;27;20320;-45
2022/02/16 14:23:39;;;;;;;;;;;22.80;40.90;;;;;;5156851;27;19923;-48